Time;durP1;ratioP1;P1;durP2;ratioP2;P2;SDS_P1;SDS_P2;PMS_P1;PMS_P2;Temp;Humidity;BMP_temperature;BMP_pressure;BME280_temperature;BME280_humidity;BME280_pressure;Samples;Min_cycle;Max_cycle;Signal;HPM_P1;HPM_P2
2022/04/20 00:00:40;;;;;;;7.72;4.50;;;10.30;96.90;;;;;;5051085;28;20079;-75
2022/04/20 00:03:06;;;;;;;8.80;4.93;;;9.90;97.30;;;;;;5050478;28;20485;-74
2022/04/20 00:05:33;;;;;;;6.60;4.45;;;10.10;97.30;;;;;;5049152;28;20056;-75
2022/04/20 00:08:00;;;;;;;9.60;4.63;;;10.30;90.90;;;;;;5050762;28;20533;-77
2022/04/20 00:10:27;;;;;;;6.10;3.92;;;10.20;97.20;;;;;;5047649;28;20044;-74
2022/04/20 00:12:52;;;;;;;9.52;4.68;;;10.10;97.40;;;;;;5050711;28;20036;-76
2022/04/20 00:15:18;;;;;;;8.37;4.57;;;10.50;97.20;;;;;;5050495;28;20041;-75
2022/04/20 00:17:43;;;;;;;7.63;4.72;;;10.20;97.10;;;;;;5050064;28;20061;-75
2022/04/20 00:20:09;;;;;;;10.70;5.40;;;10.30;97.20;;;;;;5050544;28;20389;-74
2022/04/20 00:22:35;;;;;;;6.95;5.13;;;10.70;97.40;;;;;;5050350;28;20108;-74
2022/04/20 00:25:00;;;;;;;6.20;4.40;;;10.20;96.90;;;;;;5050547;28;20464;-75
2022/04/20 00:27:26;;;;;;;6.17;4.87;;;10.20;97.00;;;;;;5035512;28;20029;-76
2022/04/20 00:29:51;;;;;;;7.93;4.40;;;10.30;97.30;;;;;;5030406;28;20033;-76
2022/04/20 00:32:17;;;;;;;9.00;4.53;;;10.10;97.10;;;;;;5029972;28;20056;-76
2022/04/20 00:34:42;;;;;;;4.20;3.50;;;10.10;96.80;;;;;;5028851;28;20535;-76
2022/04/20 00:37:08;;;;;;;7.03;4.50;;;10.20;96.70;;;;;;5030289;28;20053;-77
2022/04/20 00:39:36;;;;;;;7.88;4.97;;;10.20;96.70;;;;;;5039670;28;20051;-76
2022/04/20 00:42:01;;;;;;;7.05;4.40;;;10.10;96.70;;;;;;5050526;28;20025;-76
2022/04/20 00:44:28;;;;;;;6.23;3.90;;;10.00;96.70;;;;;;5050156;28;20107;-77
2022/04/20 00:46:55;;;;;;;9.82;3.95;;;10.10;89.20;;;;;;5049299;28;20021;-77
2022/04/20 00:49:22;;;;;;;8.70;4.47;;;10.00;96.80;;;;;;5050107;28;20023;-76
2022/04/20 00:51:57;;;;;;;5.73;4.23;;;10.00;96.70;;;;;;5049898;28;20489;-77
2022/04/20 00:54:23;;;;;;;5.88;4.15;;;10.00;96.60;;;;;;5042190;28;20044;-76
2022/04/20 00:56:49;;;;;;;6.70;3.83;;;9.70;96.60;;;;;;5030007;28;20025;-76
2022/04/20 00:59:20;;;;;;;6.60;4.40;;;10.10;96.60;;;;;;5029166;28;20026;-76
2022/04/20 01:01:46;;;;;;;6.10;3.85;;;9.80;96.70;;;;;;5029513;28;20086;-77
2022/04/20 01:04:11;;;;;;;5.50;3.33;;;9.90;96.90;;;;;;5030010;28;20026;-76
2022/04/20 01:06:37;;;;;;;5.53;4.50;;;9.90;96.80;;;;;;5029624;28;20054;-76
2022/04/20 01:09:03;;;;;;;6.73;4.90;;;10.00;96.90;;;;;;5034849;28;20029;-76
2022/04/20 01:11:29;;;;;;;5.43;3.75;;;9.90;96.80;;;;;;5049774;28;20070;-77
2022/04/20 01:13:54;;;;;;;5.35;4.22;;;9.80;96.80;;;;;;5049596;28;20028;-76
2022/04/20 01:16:20;;;;;;;6.20;3.63;;;9.70;96.80;;;;;;5049076;28;20160;-77
2022/04/20 01:18:45;;;;;;;9.50;4.40;;;9.80;92.80;;;;;;5049334;28;20435;-76
2022/04/20 01:21:11;;;;;;;5.50;3.67;;;9.60;96.70;;;;;;5049855;28;20025;-76
2022/04/20 01:23:38;;;;;;;5.25;3.65;;;9.90;96.60;;;;;;5049404;28;20152;-76
2022/04/20 01:26:10;;;;;;;6.23;3.90;;;9.70;96.50;;;;;;5046092;28;20097;-77
2022/04/20 01:28:37;;;;;;;4.87;3.73;;;9.70;96.50;;;;;;5029464;28;20045;-76
2022/04/20 01:31:04;;;;;;;5.77;3.60;;;9.80;96.60;;;;;;5029018;28;20469;-76
2022/04/20 01:33:29;;;;;;;6.83;4.10;;;9.80;96.50;;;;;;5029327;28;20025;-76
2022/04/20 01:35:55;;;;;;;4.37;3.37;;;9.70;96.50;;;;;;5029466;28;20128;-77
2022/04/20 01:38:21;;;;;;;4.73;3.50;;;9.90;96.50;;;;;;5029509;28;20478;-76
2022/04/20 01:40:46;;;;;;;5.57;4.10;;;9.80;96.50;;;;;;5048484;28;20045;-77
2022/04/20 01:43:12;;;;;;;4.93;3.63;;;9.80;96.40;;;;;;5049384;28;20021;-76
2022/04/20 01:45:37;;;;;;;7.23;3.77;;;9.70;96.30;;;;;;5048544;28;20025;-77
2022/04/20 01:48:03;;;;;;;7.50;4.57;;;9.80;96.50;;;;;;5049087;28;20385;-77
2022/04/20 01:50:28;;;;;;;6.90;4.03;;;9.70;96.30;;;;;;5049204;28;20025;-76
2022/04/20 01:52:54;;;;;;;5.50;3.53;;;9.70;96.10;;;;;;5049126;28;20056;-76
2022/04/20 01:55:20;;;;;;;3.90;3.00;;;9.80;96.10;;;;;;5033706;28;20060;-76
2022/04/20 01:57:45;;;;;;;6.97;3.57;;;9.70;96.00;;;;;;5029217;28;20044;-76
2022/04/20 02:00:12;;;;;;;6.13;3.93;;;9.70;96.10;;;;;;5028796;28;20022;-76
2022/04/20 02:02:38;;;;;;;7.73;3.40;;;9.60;95.90;;;;;;5028796;28;20435;-76
2022/04/20 02:05:06;;;;;;;5.00;3.70;;;9.60;90.80;;;;;;5029048;28;20053;-76
2022/04/20 02:07:32;;;;;;;6.93;3.30;;;9.60;96.10;;;;;;5029931;28;20125;-76
2022/04/20 02:09:58;;;;;;;7.03;3.40;;;9.70;96.20;;;;;;5029000;28;20105;-76
2022/04/20 02:12:24;;;;;;;6.70;3.73;;;9.50;96.20;;;;;;5033202;28;20021;-76
2022/04/20 02:14:49;;;;;;;7.00;3.10;;;9.50;96.20;;;;;;5045258;28;20049;-75
2022/04/20 02:17:16;;;;;;;7.83;3.30;;;9.40;96.20;;;;;;5052651;28;20512;-76
2022/04/20 02:19:41;;;;;;;5.07;3.17;;;9.50;96.20;;;;;;5052682;28;20067;-76
2022/04/20 02:22:07;;;;;;;6.00;4.00;;;9.50;96.10;;;;;;5052537;28;20028;-77
2022/04/20 02:24:32;;;;;;;5.97;3.53;;;9.40;96.10;;;;;;5052729;28;20131;-76
2022/04/20 02:26:58;;;;;;;5.07;3.70;;;8.90;96.00;;;;;;5052676;28;20535;-77
2022/04/20 02:29:24;;;;;;;4.77;3.03;;;9.30;96.10;;;;;;5052253;28;20029;-76
2022/04/20 02:31:49;;;;;;;7.03;3.60;;;9.40;96.20;;;;;;5052305;28;20067;-76
2022/04/20 02:34:15;;;;;;;5.13;3.27;;;9.40;91.80;;;;;;5052359;28;20073;-76
2022/04/20 02:36:41;;;;;;;5.87;3.30;;;9.30;96.10;;;;;;5039467;28;20036;-76
2022/04/20 02:39:06;;;;;;;4.17;3.17;;;9.40;96.10;;;;;;5032460;28;20037;-76
2022/04/20 02:41:35;;;;;;;4.10;3.17;;;9.30;96.10;;;;;;5032505;28;20524;-76
2022/04/20 02:44:02;;;;;;;9.13;4.13;;;9.30;93.40;;;;;;5031967;28;20496;-76
2022/04/20 02:46:28;;;;;;;3.83;3.23;;;9.20;96.20;;;;;;5032452;28;20029;-76
2022/04/20 02:48:54;;;;;;;5.43;3.10;;;;;;;;;;5032367;28;20083;-76
2022/04/20 02:51:19;;;;;;;5.93;3.30;;;9.10;96.20;;;;;;5032318;28;20033;-77
2022/04/20 02:53:45;;;;;;;7.80;3.77;;;9.30;92.90;;;;;;5034654;28;20100;-77
2022/04/20 02:56:10;;;;;;;4.70;3.30;;;9.10;96.20;;;;;;5050726;28;20048;-76
2022/04/20 02:58:36;;;;;;;4.63;3.40;;;9.10;96.30;;;;;;5050039;28;20033;-77
2022/04/20 03:01:01;;;;;;;4.20;2.87;;;9.00;96.40;;;;;;5050392;28;20351;-76
2022/04/20 03:03:27;;;;;;;4.87;3.10;;;9.00;96.50;;;;;;5052164;28;20043;-77
2022/04/20 03:05:53;;;;;;;5.43;3.57;;;;;;;;;;5045688;28;20107;-76
2022/04/20 03:08:19;;;;;;;4.80;3.70;;;9.00;96.40;;;;;;5032031;28;20101;-76
2022/04/20 03:10:44;;;;;;;5.87;3.00;;;;;;;;;;5031905;28;20108;-77
2022/04/20 03:13:10;;;;;;;6.83;3.00;;;;;;;;;;5031566;28;20040;-76
2022/04/20 03:15:36;;;;;;;5.23;2.97;;;;;;;;;;5031604;28;20044;-77
2022/04/20 03:18:02;;;;;;;6.70;3.83;;;9.00;96.50;;;;;;5037209;28;20463;-76
2022/04/20 03:20:28;;;;;;;6.57;3.67;;;;;;;;;;5051735;28;20029;-77
2022/04/20 03:22:53;;;;;;;4.83;3.30;;;8.90;96.40;;;;;;5050955;28;20701;-76
2022/04/20 03:25:19;;;;;;;5.97;3.23;;;9.10;96.40;;;;;;5051577;28;20025;-76
2022/04/20 03:27:45;;;;;;;6.40;4.00;;;;;;;;;;5033251;28;20043;-77
2022/04/20 03:30:12;;;;;;;6.97;4.07;;;9.00;96.30;;;;;;5030221;28;20029;-77
2022/04/20 03:32:39;;;;;;;5.17;3.30;;;8.90;96.40;;;;;;5032688;28;20037;-76
2022/04/20 03:35:05;;;;;;;4.33;3.00;;;;;;;;;;5031425;28;20101;-77
2022/04/20 03:37:31;;;;;;;4.67;3.10;;;;;;;;;;5031338;28;20051;-76
2022/04/20 03:39:59;;;;;;;5.43;3.00;;;8.90;96.50;;;;;;5031500;28;20061;-77
2022/04/20 03:42:25;;;;;;;8.63;2.47;;;;;;;;;;5043580;28;20057;-77
2022/04/20 03:44:51;;;;;;;3.63;2.90;;;8.90;96.50;;;;;;5051149;28;20179;-76
2022/04/20 03:47:16;;;;;;;6.37;3.57;;;8.70;96.50;;;;;;5051113;28;20024;-76
2022/04/20 03:49:42;;;;;;;4.90;3.67;;;8.80;96.40;;;;;;5051155;28;20099;-77
2022/04/20 03:52:07;;;;;;;4.27;2.97;;;8.80;95.70;;;;;;5051234;28;20063;-76
2022/04/20 03:54:35;;;;;;;7.33;3.30;;;8.70;91.30;;;;;;5049217;28;20042;-76
2022/04/20 03:57:03;;;;;;;4.33;2.70;;;;;;;;;;5041351;28;20032;-76
2022/04/20 03:59:32;;;;;;;6.40;3.17;;;8.60;96.60;;;;;;5031173;28;20474;-76
2022/04/20 04:01:58;;;;;;;8.17;3.27;;;8.70;89.50;;;;;;5031031;28;20419;-77
2022/04/20 04:04:24;;;;;;;3.87;2.63;;;8.70;96.70;;;;;;5042879;28;20458;-77
2022/04/20 04:06:50;;;;;;;5.47;3.53;;;8.70;96.80;;;;;;5050782;28;20057;-77
2022/04/20 04:09:15;;;;;;;3.93;2.77;;;;;;;;;;5047737;28;20047;-77
2022/04/20 04:11:41;;;;;;;3.83;3.00;;;;;;;;;;5047624;28;20044;-76
2022/04/20 04:14:07;;;;;;;3.93;3.10;;;8.60;96.70;;;;;;5050158;28;20032;-76
2022/04/20 04:16:39;;;;;;;5.23;2.60;;;8.70;96.70;;;;;;5050669;28;20025;-76
2022/04/20 04:19:05;;;;;;;6.37;3.47;;;;;;;;;;5066514;22;20444;31
2022/04/20 04:21:31;;;;;;;4.50;2.83;;;;;;;;;;4990172;28;20456;-71
2022/04/20 04:23:58;;;;;;;5.17;2.30;;;8.40;96.90;;;;;;4991544;28;20030;-72
2022/04/20 04:26:23;;;;;;;3.97;2.93;;;8.30;93.00;;;;;;4991821;28;20019;-72
2022/04/20 04:28:49;;;;;;;5.03;2.80;;;8.30;97.00;;;;;;4988567;28;20319;-72
2022/04/20 04:31:14;;;;;;;6.10;3.30;;;8.30;97.20;;;;;;4991363;28;20471;-72
2022/04/20 04:33:40;;;;;;;7.90;2.90;;;8.50;97.20;;;;;;4990565;28;20030;-72
2022/04/20 04:36:07;;;;;;;5.30;3.63;;;8.30;97.20;;;;;;4991257;28;20034;-72
2022/04/20 04:38:33;;;;;;;5.37;3.00;;;8.20;97.20;;;;;;4991071;28;20026;-72
2022/04/20 04:40:59;;;;;;;4.17;3.07;;;;;;;;;;4981751;28;20090;-72
2022/04/20 04:43:25;;;;;;;7.80;3.07;;;8.20;96.40;;;;;;4972209;28;20790;-72
2022/04/20 04:48:38;;;;;;;7.22;2.83;;;8.20;97.20;;;;;;4971812;28;20530;-71
2022/04/20 04:51:05;;;;;;;4.93;2.77;;;8.00;97.20;;;;;;4971870;28;20030;-72
2022/04/20 04:53:31;;;;;;;5.07;2.83;;;;;;;;;;4971251;28;20383;-72
2022/04/20 04:55:56;;;;;;;3.93;2.40;;;8.40;97.30;;;;;;4971886;28;20038;-72
2022/04/20 04:58:22;;;;;;;3.90;2.73;;;;;;;;;;4984585;28;20391;-72
2022/04/20 05:00:48;;;;;;;5.27;3.37;;;8.30;97.20;;;;;;4991113;28;20069;-72
2022/04/20 05:03:17;;;;;;;3.97;3.20;;;;;;;;;;4991189;28;20387;-72
2022/04/20 05:05:48;;;;;;;5.60;3.03;;;8.40;97.20;;;;;;4990943;28;20030;-73
2022/04/20 05:08:13;;;;;;;5.57;2.80;;;8.40;97.10;;;;;;4990191;28;20034;-71
2022/04/20 05:10:39;;;;;;;4.43;2.50;;;;;;;;;;4989059;28;20038;-71
2022/04/20 05:13:06;;;;;;;5.37;2.87;;;8.50;97.00;;;;;;4981977;28;20076;-71
2022/04/20 05:15:32;;;;;;;3.60;2.50;;;8.50;95.00;;;;;;4985501;28;20070;-71
2022/04/20 05:17:58;;;;;;;6.70;3.20;;;8.40;97.10;;;;;;4990683;28;20462;-71
2022/04/20 05:20:23;;;;;;;6.70;2.47;;;8.40;96.90;;;;;;4990527;28;20089;-71
2022/04/20 05:22:49;;;;;;;4.33;2.00;;;8.40;97.10;;;;;;4989960;28;20034;-71
2022/04/20 05:25:16;;;;;;;6.50;3.43;;;8.50;97.00;;;;;;4988194;28;20038;-71
2022/04/20 05:27:42;;;;;;;5.00;2.33;;;;;;;;;;4989956;28;20026;-72
2022/04/20 05:30:11;;;;;;;5.90;2.37;;;8.40;95.40;;;;;;4990709;28;20022;-73
2022/04/20 05:32:36;;;;;;;7.27;2.83;;;8.50;96.90;;;;;;4990185;28;20030;-73
2022/04/20 05:35:02;;;;;;;3.87;2.67;;;8.60;96.90;;;;;;4990374;28;20419;-73
2022/04/20 05:43:14;;;;;;;3.60;2.80;;;;;;;;;;4949736;29;20027;-73
2022/04/20 05:45:39;;;;;;;4.57;2.70;;;8.60;94.40;;;;;;4948779;28;20039;-71
2022/04/20 05:48:04;;;;;;;5.90;3.30;;;8.80;96.60;;;;;;4949536;29;20053;-71
2022/04/20 05:50:30;;;;;;;3.83;2.27;;;;;;;;;;4948976;29;20047;-71
2022/04/20 05:52:56;;;;;;;4.53;2.63;;;8.70;94.00;;;;;;4948923;29;20032;-71
2022/04/20 05:55:21;;;;;;;4.43;2.17;;;8.70;96.30;;;;;;4933260;29;20484;-71
2022/04/20 05:57:47;;;;;;;4.30;2.30;;;8.80;96.20;;;;;;4933432;29;20054;-71
2022/04/20 06:00:14;;;;;;;4.27;2.20;;;8.90;88.10;;;;;;4948844;28;20038;-70
2022/04/20 06:02:40;;;;;;;4.83;2.73;;;;;;;;;;4948860;29;20027;-70
2022/04/20 06:05:06;;;;;;;3.53;2.60;;;9.10;92.40;;;;;;4947274;29;20047;-70
2022/04/20 06:07:33;;;;;;;5.60;2.40;;;9.00;95.90;;;;;;4948350;29;20070;-70
2022/04/20 06:09:58;;;;;;;4.33;2.77;;;9.10;95.90;;;;;;4948265;28;20043;-71
2022/04/20 06:12:24;;;;;;;5.50;2.53;;;9.20;95.90;;;;;;4948882;29;20039;-71
2022/04/20 06:14:50;;;;;;;2.87;2.37;;;9.30;95.70;;;;;;4948053;29;20053;-70
2022/04/20 06:17:16;;;;;;;4.77;3.00;;;;;;;;;;4970268;28;20038;-72
2022/04/20 06:19:41;;;;;;;5.00;2.50;;;9.30;91.10;;;;;;4988932;28;20133;-72
2022/04/20 06:22:07;;;;;;;5.60;2.87;;;9.40;95.60;;;;;;4985271;28;20031;-73
2022/04/20 06:24:33;;;;;;;5.53;2.50;;;;;;;;;;4983375;28;20034;-73
2022/04/20 06:26:59;;;;;;;4.07;2.53;;;9.60;95.60;;;;;;4989690;28;20038;-73
2022/04/20 06:29:24;;;;;;;4.63;2.37;;;9.60;95.60;;;;;;4989417;28;20035;-73
2022/04/20 06:31:51;;;;;;;7.30;2.93;;;9.70;95.30;;;;;;4983441;28;20039;-74
2022/04/20 06:34:20;;;;;;;5.40;2.30;;;9.60;91.90;;;;;;4989643;28;20455;-73
2022/04/20 06:36:45;;;;;;;3.57;2.53;;;9.60;95.00;;;;;;4989163;28;20371;-73
2022/04/20 06:39:11;;;;;;;4.43;2.30;;;9.80;94.80;;;;;;4989751;28;20034;-74
2022/04/20 06:41:36;;;;;;;9.57;2.73;;;9.80;94.70;;;;;;4989433;28;20141;-74
2022/04/20 06:44:02;;;;;;;5.80;2.77;;;;;;;;;;4989667;28;20026;-74
2022/04/20 06:46:28;;;;;;;7.87;2.50;;;10.00;93.70;;;;;;4989734;28;20030;-75
2022/04/20 06:48:55;;;;;;;5.43;2.97;;;9.70;94.60;;;;;;4989551;28;20030;-74
2022/04/20 06:51:21;;;;;;;2.53;2.07;;;9.90;94.70;;;;;;4989713;28;20085;-74
2022/04/20 06:59:15;;;;;;;7.22;2.92;;;10.00;91.90;;;;;;4987932;28;20490;-74
2022/04/20 07:01:41;;;;;;;5.70;2.90;;;10.10;94.30;;;;;;4991742;28;20030;-73
2022/04/20 07:04:07;;;;;;;6.80;2.63;;;;;;;;;;4990075;28;20026;-72
2022/04/20 07:06:33;;;;;;;2.80;2.13;;;;;;;;;;4973352;28;20454;-74
2022/04/20 07:08:58;;;;;;;4.83;1.90;;;;;;;;;;4972326;28;20037;-74
2022/04/20 07:11:25;;;;;;;5.80;2.37;;;10.50;93.90;;;;;;4972742;28;20482;-72
2022/04/20 07:13:51;;;;;;;4.90;2.87;;;10.50;93.90;;;;;;4972357;28;20034;-73
2022/04/20 07:16:16;;;;;;;4.17;2.53;;;10.50;94.00;;;;;;4972508;28;20050;-72
2022/04/20 07:18:42;;;;;;;3.87;2.73;;;10.60;93.80;;;;;;4971706;28;20059;-72
2022/04/20 07:21:07;;;;;;;5.10;3.10;;;10.70;93.80;;;;;;4970910;28;20101;-73
2022/04/20 07:23:33;;;;;;;5.50;2.60;;;10.70;93.80;;;;;;4988032;28;20092;-73
2022/04/20 07:25:58;;;;;;;4.30;2.17;;;11.00;93.90;;;;;;4990054;28;20049;-73
2022/04/20 07:28:24;;;;;;;2.97;2.00;;;11.10;94.00;;;;;;5004874;28;20022;-72
2022/04/20 07:30:50;;;;;;;4.03;2.23;;;11.20;94.00;;;;;;4972163;28;20148;-72
2022/04/20 07:33:16;;;;;;;4.93;3.03;;;11.20;93.60;;;;;;4972040;28;20475;-74
2022/04/20 07:35:45;;;;;;;5.05;3.38;;;11.30;93.50;;;;;;4970733;28;20043;-73
2022/04/20 07:38:11;;;;;;;5.65;3.10;;;11.10;93.50;;;;;;4984305;28;20031;-73
2022/04/20 07:40:36;;;;;;;4.17;3.10;;;10.90;93.30;;;;;;4991438;28;20047;-73
2022/04/20 07:43:02;;;;;;;4.03;3.05;;;11.40;93.50;;;;;;4991525;28;20026;-72
2022/04/20 07:45:28;;;;;;;4.63;2.40;;;11.40;93.70;;;;;;5006761;28;20026;-72
2022/04/20 07:47:55;;;;;;;2.60;2.40;;;11.40;93.80;;;;;;5005981;28;20022;-73
2022/04/20 07:50:23;;;;;;;8.95;3.17;;;11.70;94.10;;;;;;4991400;28;20497;-72
2022/04/20 07:52:55;;;;;;;3.00;2.45;;;11.60;93.60;;;;;;4991492;28;20037;-74
2022/04/20 07:55:27;;;;;;;5.43;3.83;;;11.90;93.90;;;;;;4992326;28;20050;-72
2022/04/20 07:57:54;;;;;;;4.22;2.95;;;11.70;93.30;;;;;;4979499;28;20065;-73
2022/04/20 08:00:22;;;;;;;5.03;2.50;;;11.80;93.30;;;;;;4971814;28;20085;-74
2022/04/20 08:02:49;;;;;;;3.67;2.70;;;11.90;93.40;;;;;;4972700;28;20031;-73
2022/04/20 08:05:17;;;;;;;4.70;2.70;;;12.00;93.30;;;;;;4973022;28;20019;-73
2022/04/20 08:07:45;;;;;;;4.22;2.15;;;12.10;82.80;;;;;;4972386;28;20042;-73
2022/04/20 08:10:12;;;;;;;6.88;2.88;;;12.30;82.90;;;;;;4972652;28;20033;-73
2022/04/20 08:12:39;;;;;;;2.65;2.15;;;12.10;82.00;;;;;;4971347;28;20027;-74
2022/04/20 08:15:06;;;;;;;3.97;2.45;;;12.30;81.70;;;;;;4972546;28;20079;-73
2022/04/20 08:17:33;;;;;;;5.32;2.70;;;12.40;81.30;;;;;;4971960;28;20038;-73
2022/04/20 08:19:59;;;;;;;2.95;1.80;;;12.70;92.60;;;;;;4972296;28;20141;-75
2022/04/20 08:22:25;;;;;;;4.32;2.83;;;12.60;80.50;;;;;;4983916;28;20484;-74
2022/04/20 08:24:51;;;;;;;2.88;1.98;;;13.00;92.50;;;;;;4991929;28;20450;-74
2022/04/20 08:27:17;;;;;;;5.60;2.22;;;12.90;80.00;;;;;;4991785;28;20052;-74
2022/04/20 08:29:45;;;;;;;4.95;1.95;;;12.90;79.00;;;;;;4987886;28;20530;-74
2022/04/20 08:32:10;;;;;;;5.18;1.67;;;13.00;91.70;;;;;;4990871;28;20018;-74
2022/04/20 08:34:36;;;;;;;5.43;2.63;;;13.00;78.50;;;;;;4986787;28;20543;-74
2022/04/20 08:37:01;;;;;;;5.32;1.98;;;13.10;78.00;;;;;;4990388;28;20019;-73
2022/04/20 08:39:27;;;;;;;4.10;2.35;;;13.30;76.90;;;;;;4987524;28;20034;-74
2022/04/20 08:41:54;;;;;;;4.57;2.20;;;13.30;90.50;;;;;;4990620;28;20121;-73
2022/04/20 08:44:28;;;;;;;3.60;1.83;;;13.30;76.90;;;;;;4989101;28;20023;-73
2022/04/20 08:46:58;;;;;;;5.03;2.15;;;13.20;77.10;;;;;;4982525;28;20117;-73
2022/04/20 08:49:23;;;;;;;3.45;2.03;;;13.30;76.00;;;;;;4990811;28;20121;-74
2022/04/20 08:54:34;;;;;;;3.80;1.50;;;13.50;74.80;;;;;;4971059;28;20097;-74
2022/04/20 08:57:15;;;;;;;4.03;2.05;;;13.50;74.90;;;;;;4971355;28;20034;-74
2022/04/20 08:59:43;;;;;;;3.33;2.15;;;13.50;72.20;;;;;;4970958;28;20063;-75
2022/04/20 09:02:10;;;;;;;4.72;1.70;;;13.50;75.50;;;;;;4971617;28;20035;-74
2022/04/20 09:04:36;;;;;;;2.13;1.55;;;13.70;75.80;;;;;;4971270;28;20031;-73
2022/04/20 09:07:03;;;;;;;3.22;1.77;;;13.70;74.30;;;;;;4971804;28;20034;-75
2022/04/20 09:09:30;;;;;;;6.43;2.33;;;13.80;74.20;;;;;;4973160;28;20041;-72
2022/04/20 09:11:59;;;;;;;5.65;2.60;;;16.20;75.60;;;;;;4990882;28;20474;-72
2022/04/20 09:14:28;;;;;;;4.35;2.63;;;13.90;74.20;;;;;;4990247;28;20085;-71
2022/04/20 09:16:55;;;;;;;2.85;2.13;;;14.00;73.70;;;;;;4990802;28;20058;-72
2022/04/20 09:19:25;;;;;;;3.47;2.63;;;13.90;74.20;;;;;;4990677;28;20015;-72
2022/04/20 09:21:51;;;;;;;6.85;2.13;;;14.10;74.70;;;;;;4990291;28;20046;-73
2022/04/20 09:24:16;;;;;;;2.60;1.90;;;14.10;73.70;;;;;;4990885;28;20038;-75
2022/04/20 09:26:52;;;;;;;3.88;2.22;;;14.00;74.00;;;;;;4988682;28;20034;-73
2022/04/20 09:29:18;;;;;;;4.97;2.38;;;;;;;;;;4990109;28;20027;-73
2022/04/20 09:31:49;;;;;;;2.53;2.03;;;14.10;70.80;;;;;;4990327;28;20073;-73
2022/04/20 09:34:34;;;;;;;5.50;2.30;;;14.10;74.00;;;;;;4990459;28;20026;-73
2022/04/20 09:37:13;;;;;;;3.17;2.33;;;14.20;73.80;;;;;;4986286;28;20018;-73
2022/04/20 09:39:43;;;;;;;8.05;2.80;;;14.30;74.50;;;;;;4971034;28;20090;-75
2022/04/20 09:42:09;;;;;;;3.20;2.28;;;14.20;74.00;;;;;;4971350;28;20027;-75
2022/04/20 09:44:35;;;;;;;4.20;2.58;;;14.40;73.40;;;;;;4969327;28;20419;-74
2022/04/20 09:50:02;;;;;;;6.47;3.22;;;14.40;70.60;;;;;;4977715;28;20093;-73
2022/04/20 09:52:47;;;;;;;5.03;2.55;;;14.30;74.40;;;;;;4973255;28;20031;-73
2022/04/20 09:55:26;;;;;;;3.45;1.65;;;14.50;74.50;;;;;;4977163;28;20044;-72
2022/04/20 09:57:53;;;;;;;2.63;2.20;;;14.50;73.80;;;;;;4989693;28;20029;-74
2022/04/20 10:00:20;;;;;;;3.17;1.90;;;14.50;72.40;;;;;;4990081;28;20029;-72
2022/04/20 10:02:51;;;;;;;3.67;2.03;;;14.70;72.60;;;;;;4978077;28;20447;-72
2022/04/20 10:05:18;;;;;;;3.38;2.38;;;14.70;71.60;;;;;;4970648;28;20109;-72
2022/04/20 10:07:44;;;;;;;4.80;2.42;;;14.60;72.50;;;;;;4982510;28;20110;-72
2022/04/20 10:10:10;;;;;;;4.07;2.88;;;14.70;71.90;;;;;;4990067;28;20451;-72
2022/04/20 10:12:39;;;;;;;3.63;2.20;;;15.90;70.80;;;;;;4988057;28;20058;-72
2022/04/20 10:17:53;;;;;;;3.22;2.17;;;14.80;70.60;;;;;;4977311;28;20045;-73
2022/04/20 10:20:19;;;;;;;4.97;2.20;;;14.70;70.80;;;;;;4989425;28;20522;-74
2022/04/20 10:22:46;;;;;;;3.92;2.15;;;14.70;70.80;;;;;;4990251;28;20030;-73
2022/04/20 10:25:13;;;;;;;4.03;2.47;;;14.80;69.80;;;;;;4989382;28;20038;-73
2022/04/20 10:28:08;;;;;;;2.42;2.20;;;14.90;70.90;;;;;;4977939;28;20066;-73
2022/04/20 10:30:39;;;;;;;3.53;1.92;;;15.00;70.90;;;;;;4970659;28;20110;-72
2022/04/20 10:33:12;;;;;;;2.92;1.80;;;15.00;69.10;;;;;;4990174;28;20160;-72
2022/04/20 10:36:04;;;;;;;3.45;1.80;;;14.90;70.90;;;;;;4994131;28;20034;-73
2022/04/20 10:38:32;;;;;;;3.33;1.75;;;15.00;70.30;;;;;;4983038;28;20052;-73
2022/04/20 10:41:07;;;;;;;3.05;1.85;;;15.40;71.50;;;;;;4992781;28;20764;-73
2022/04/20 10:43:38;;;;;;;6.22;1.83;;;15.20;68.70;;;;;;4974514;28;20105;-73
2022/04/20 10:46:07;;;;;;;3.92;2.45;;;15.10;70.90;;;;;;4972733;28;20394;-73
2022/04/20 10:48:51;;;;;;;6.43;2.75;;;15.20;70.70;;;;;;4980872;28;20340;-73
2022/04/20 10:51:30;;;;;;;4.10;1.73;;;15.10;70.60;;;;;;4990156;28;20042;-73
2022/04/20 10:54:24;;;;;;;2.35;1.45;;;15.20;68.70;;;;;;4993139;28;20061;-72
2022/04/20 10:57:09;;;;;;;;;;;15.20;69.40;;;;;;4985870;28;20047;-72
2022/04/20 10:59:34;;;;;;;2.70;1.80;;;15.20;71.10;;;;;;4985885;28;19933;-71
2022/04/20 11:02:03;;;;;;;5.70;2.17;;;15.20;69.90;;;;;;4992980;28;20475;-72
2022/04/20 11:04:33;;;;;;;3.28;2.10;;;15.30;70.30;;;;;;4993008;28;20506;-72
2022/04/20 11:06:58;;;;;;;2.85;2.15;;;15.30;71.10;;;;;;4992836;28;20085;-72
2022/04/20 11:09:42;;;;;;;6.05;2.80;;;15.20;70.10;;;;;;4993323;28;20030;-73
2022/04/20 11:21:03;;;;;;;3.58;2.33;;;13.10;68.70;;;;;;4989459;28;20150;-73
2022/04/20 11:23:48;;;;;;;5.60;2.75;;;15.30;71.60;;;;;;4992799;28;20116;-73
2022/04/20 11:26:20;;;;;;;4.30;2.45;;;16.60;72.90;;;;;;4989541;28;20031;-73
2022/04/20 11:28:47;;;;;;;6.72;2.58;;;15.30;69.50;;;;;;4973868;28;20030;-77
2022/04/20 11:31:13;;;;;;;2.40;1.75;;;15.20;70.80;;;;;;4982937;28;20022;-73
2022/04/20 11:33:39;;;;;;;2.47;1.70;;;15.20;69.80;;;;;;4992356;28;20049;-73
2022/04/20 11:36:05;;;;;;;2.90;1.90;;;15.20;70.40;;;;;;4991852;28;20097;-73
2022/04/20 11:38:38;;;;;;;4.60;2.35;;;16.70;71.50;;;;;;4988937;28;20034;-72
2022/04/20 11:41:05;;;;;;;6.95;2.42;;;15.40;71.90;;;;;;4991736;28;20376;-73
2022/04/20 11:43:31;;;;;;;2.83;1.75;;;15.40;69.90;;;;;;4981561;28;20134;-73
2022/04/20 11:45:57;;;;;;;7.60;1.63;;;15.30;68.80;;;;;;4990728;28;20109;-73
2022/04/20 11:48:23;;;;;;;3.63;1.83;;;15.20;69.50;;;;;;4992444;28;20023;-73
2022/04/20 11:51:00;;;;;;;4.15;1.65;;;15.40;69.80;;;;;;4992873;28;20109;-73
2022/04/20 11:53:38;;;;;;;3.55;2.80;;;15.40;71.70;;;;;;4991616;28;20042;-73
2022/04/20 11:56:07;;;;;;;2.30;2.08;;;15.60;69.80;;;;;;4992033;28;20034;-75
2022/04/20 11:58:33;;;;;;;2.50;2.30;;;15.60;71.00;;;;;;4992256;28;20053;-73
2022/04/20 12:01:07;;;;;;;3.15;1.98;;;15.40;70.60;;;;;;4992091;28;20037;-71
2022/04/20 12:03:37;;;;;;;3.50;2.45;;;15.50;69.60;;;;;;4992494;28;20049;-71
2022/04/20 12:06:08;;;;;;;4.32;2.22;;;15.50;69.10;;;;;;4990861;28;20096;-72
2022/04/20 12:08:35;;;;;;;6.75;2.28;;;15.50;71.10;;;;;;4980011;28;20078;-72
2022/04/20 12:11:04;;;;;;;3.28;1.73;;;15.60;70.80;;;;;;4972559;28;20037;-71
2022/04/20 12:13:31;;;;;;;3.83;2.40;;;15.70;70.80;;;;;;4973005;28;20031;-72
2022/04/20 12:16:05;;;;;;;3.20;2.25;;;15.60;70.50;;;;;;4974841;28;20066;-72
2022/04/20 12:18:40;;;;;;;4.88;2.28;;;15.80;69.50;;;;;;4987182;28;20038;-72
2022/04/20 12:21:26;;;;;;;3.95;2.40;;;15.70;69.60;;;;;;4991593;28;20123;-72
2022/04/20 12:23:52;;;;;;;4.25;2.38;;;15.80;71.00;;;;;;4978064;28;20037;-71
2022/04/20 12:26:29;;;;;;;6.00;2.17;;;15.70;70.50;;;;;;4972025;28;20027;-72
2022/04/20 12:29:05;;;;;;;4.03;2.45;;;15.70;69.80;;;;;;4982272;28;20037;-72
2022/04/20 12:31:31;;;;;;;5.15;2.47;;;15.70;71.00;;;;;;4989439;28;20030;-72
2022/04/20 12:34:04;;;;;;;3.55;2.17;;;15.70;70.10;;;;;;4980324;28;20108;-72
2022/04/20 12:36:33;;;;;;;5.32;3.15;;;16.40;72.10;;;;;;4991743;28;20038;-72
2022/04/20 12:38:59;;;;;;;3.78;2.83;;;15.70;71.70;;;;;;4999650;28;20113;-72
2022/04/20 12:41:37;;;;;;;4.47;2.22;;;16.00;71.60;;;;;;5011409;28;20524;-72
2022/04/20 12:44:35;;;;;;;4.18;2.28;;;15.90;69.40;;;;;;5026298;28;20546;-71
2022/04/20 12:47:21;;;;;;;4.10;2.60;;;16.00;69.50;;;;;;5006487;28;20505;-72
2022/04/20 12:49:59;;;;;;;2.97;2.25;;;16.00;71.30;;;;;;5004753;28;20109;-73
2022/04/20 12:52:27;;;;;;;2.08;1.65;;;16.00;71.40;;;;;;4990534;28;20101;-72
2022/04/20 12:55:16;;;;;;;6.00;2.70;;;16.00;70.60;;;;;;4989476;28;20030;-72
2022/04/20 13:03:35;;;;;;;3.17;2.28;;;16.00;69.60;;;;;;4991227;28;20550;-72
2022/04/20 13:06:06;;;;;;;5.03;2.40;;;16.10;71.50;;;;;;4986843;28;20026;-72
2022/04/20 13:08:32;;;;;;;4.30;2.47;;;16.20;68.60;;;;;;4988160;28;20046;-72
2022/04/20 13:10:58;;;;;;;7.72;3.05;;;16.20;70.50;;;;;;4987964;28;20022;-73
2022/04/20 13:13:27;;;;;;;4.72;2.60;;;16.30;70.10;;;;;;4991522;28;20027;-74
2022/04/20 13:15:53;;;;;;;3.30;2.35;;;16.40;70.70;;;;;;4990981;28;20030;-74
2022/04/20 13:18:19;;;;;;;3.90;2.35;;;17.00;70.50;;;;;;4991108;28;20030;-74
2022/04/20 13:20:45;;;;;;;4.68;2.28;;;16.40;69.70;;;;;;4978442;28;20220;-73
2022/04/20 13:23:11;;;;;;;4.10;3.30;;;16.50;69.90;;;;;;4976847;28;20502;-73
2022/04/20 13:28:21;;;;;;;3.72;2.33;;;16.50;67.70;;;;;;4990886;28;20084;-73
2022/04/20 13:30:47;;;;;;;2.85;1.77;;;16.60;69.30;;;;;;4990275;28;20153;-74
2022/04/20 13:33:14;;;;;;;3.40;1.80;;;16.90;69.80;;;;;;4990468;28;20481;-73
2022/04/20 13:35:41;;;;;;;5.78;2.20;;;16.70;70.40;;;;;;4987327;28;20080;-73
2022/04/20 13:38:07;;;;;;;2.25;1.50;;;16.70;70.00;;;;;;4989548;28;20061;-73
2022/04/20 13:40:36;;;;;;;4.00;2.65;;;16.90;69.30;;;;;;4990642;28;20384;-75
2022/04/20 13:43:02;;;;;;;1.85;1.70;;;16.80;69.10;;;;;;4990999;28;20018;-71